Time;durP1;ratioP1;P1;durP2;ratioP2;P2;SDS_P1;SDS_P2;PMS_P1;PMS_P2;Temp;Humidity;BMP_temperature;BMP_pressure;BME280_temperature;BME280_humidity;BME280_pressure;Samples;Min_cycle;Max_cycle;Signal;HPM_P1;HPM_P2
2022/03/04 00:01:46;;;;;;;19.52;11.85;;;1.70;99.90;;;;;;5034062;28;20045;-80
2022/03/04 00:04:13;;;;;;;16.92;11.30;;;1.70;99.90;;;;;;5052276;28;20171;-79
2022/03/04 00:06:38;;;;;;;18.40;11.25;;;1.70;99.90;;;;;;5050903;28;20045;-80
2022/03/04 00:09:05;;;;;;;17.52;11.73;;;1.70;99.90;;;;;;5034195;28;20501;-79
2022/03/04 00:11:31;;;;;;;17.83;10.60;;;1.60;99.90;;;;;;5052048;28;20104;-79
2022/03/04 00:13:56;;;;;;;18.02;11.25;;;1.70;99.90;;;;;;5053133;28;20482;-75
2022/03/04 00:16:22;;;;;;;17.90;11.00;;;1.60;99.90;;;;;;5067427;28;20056;-78
2022/03/04 00:19:06;;;;;;;17.50;11.00;;;1.60;99.90;;;;;;5068788;28;20048;-75
2022/03/04 00:21:35;;;;;;;17.20;10.77;;;1.60;99.90;;;;;;5068936;28;20080;-76
2022/03/04 00:24:01;;;;;;;16.85;10.90;;;1.60;99.90;;;;;;5062971;28;20102;-79
2022/03/04 00:26:27;;;;;;;18.58;12.07;;;1.60;99.90;;;;;;5038072;28;20045;-79
2022/03/04 00:28:52;;;;;;;17.55;10.90;;;1.70;99.90;;;;;;5055074;28;20132;-78
2022/03/04 00:31:18;;;;;;;17.25;11.85;;;1.70;99.90;;;;;;5054394;28;20076;-79
2022/03/04 00:33:44;;;;;;;15.15;10.43;;;1.60;99.90;;;;;;5055128;28;20481;-80
2022/03/04 00:36:09;;;;;;;17.00;11.10;;;1.60;99.90;;;;;;5054331;28;20049;-80
2022/03/04 00:38:35;;;;;;;15.63;10.55;;;1.60;99.90;;;;;;5054390;28;20132;-80
2022/03/04 00:41:00;;;;;;;17.80;10.95;;;1.50;99.90;;;;;;5054075;28;20539;-80
2022/03/04 00:43:26;;;;;;;15.93;10.27;;;1.60;99.90;;;;;;5055324;28;20041;-80
2022/03/04 00:45:52;;;;;;;18.63;11.32;;;1.50;99.90;;;;;;5055244;28;20096;-78
2022/03/04 00:48:17;;;;;;;17.00;10.73;;;1.60;99.90;;;;;;5037776;28;20102;-78
2022/03/04 00:50:43;;;;;;;17.65;11.00;;;1.50;99.90;;;;;;5055617;28;20080;-80
2022/03/04 00:53:09;;;;;;;19.50;11.68;;;1.50;99.90;;;;;;5055714;28;20127;-79
2022/03/04 00:55:37;;;;;;;19.65;10.85;;;1.40;99.90;;;;;;5054336;28;20045;-80
2022/03/04 00:58:04;;;;;;;16.38;10.52;;;1.40;99.90;;;;;;5021128;28;20394;-80
2022/03/04 01:00:29;;;;;;;18.20;10.82;;;1.40;99.90;;;;;;5055426;28;20048;-80
2022/03/04 01:02:55;;;;;;;18.05;11.18;;;1.40;99.90;;;;;;5054774;28;20508;-80
2022/03/04 01:05:21;;;;;;;17.15;10.95;;;1.40;99.90;;;;;;5054879;28;20374;-79
2022/03/04 01:07:46;;;;;;;16.83;11.25;;;1.40;99.90;;;;;;5054428;28;20049;-80
2022/03/04 01:10:12;;;;;;;20.23;11.23;;;1.40;99.90;;;;;;5053801;28;20041;-80
2022/03/04 01:12:37;;;;;;;16.48;10.98;;;1.30;99.90;;;;;;5054765;28;20041;-80
2022/03/04 01:15:04;;;;;;;17.00;11.30;;;1.30;99.90;;;;;;5054447;28;20045;-81
2022/03/04 01:17:29;;;;;;;16.45;10.73;;;1.30;99.90;;;;;;5054740;28;20394;-80
2022/03/04 01:19:55;;;;;;;16.67;10.75;;;1.30;99.90;;;;;;5054262;28;20061;-80
2022/03/04 01:22:20;;;;;;;18.70;11.20;;;1.20;99.90;;;;;;5054735;28;20049;-79
2022/03/04 01:24:46;;;;;;;16.83;11.00;;;1.20;99.90;;;;;;5054235;28;20370;-81
2022/03/04 01:27:12;;;;;;;19.50;10.18;;;1.20;99.90;;;;;;5054549;28;20473;-80
2022/03/04 01:29:38;;;;;;;14.07;10.07;;;1.10;99.90;;;;;;5053277;28;20440;-80
2022/03/04 01:32:04;;;;;;;18.17;10.90;;;1.10;99.90;;;;;;5052679;28;20557;-80
2022/03/04 01:34:30;;;;;;;17.48;10.98;;;1.10;99.90;;;;;;5054503;28;20128;-80
2022/03/04 01:36:55;;;;;;;19.15;11.63;;;1.10;99.90;;;;;;5053913;28;20084;-80
2022/03/04 01:39:21;;;;;;;17.23;10.82;;;1.10;99.90;;;;;;5053000;28;20055;-80
2022/03/04 01:41:47;;;;;;;15.68;10.63;;;1.10;99.90;;;;;;5054318;28;20045;-80
2022/03/04 01:44:12;;;;;;;17.42;11.50;;;1.10;99.90;;;;;;5052691;28;20048;-80
2022/03/04 01:46:38;;;;;;;15.77;10.15;;;1.00;99.90;;;;;;5054205;28;20102;-80
2022/03/04 01:49:04;;;;;;;16.30;10.82;;;1.00;99.90;;;;;;5052597;28;20166;-80
2022/03/04 01:51:29;;;;;;;15.90;10.45;;;0.90;99.90;;;;;;5053383;28;20041;-79
2022/03/04 01:53:55;;;;;;;18.67;10.57;;;0.90;99.90;;;;;;5054374;28;20079;-77
2022/03/04 01:56:21;;;;;;;16.98;11.43;;;0.90;99.90;;;;;;5066644;28;20102;-75
2022/03/04 01:58:47;;;;;;;16.30;10.80;;;0.80;99.90;;;;;;5065237;28;20095;-75
2022/03/04 02:01:13;;;;;;;17.90;11.40;;;0.80;99.90;;;;;;5064299;28;20045;-76
2022/03/04 02:03:38;;;;;;;18.10;11.63;;;0.80;99.90;;;;;;5056200;28;20040;-78
2022/03/04 02:06:04;;;;;;;19.02;11.30;;;0.80;99.90;;;;;;5051947;28;20056;-80
2022/03/04 02:08:29;;;;;;;16.80;11.13;;;0.80;99.90;;;;;;5053442;28;20083;-80
2022/03/04 02:10:55;;;;;;;20.08;11.02;;;0.80;99.90;;;;;;5053466;28;20049;-80
2022/03/04 02:13:21;;;;;;;22.05;11.90;;;0.80;99.90;;;;;;5053534;28;20045;-80
2022/03/04 02:15:46;;;;;;;20.98;12.55;;;0.80;99.90;;;;;;5053405;28;20052;-79
2022/03/04 02:18:13;;;;;;;19.52;12.15;;;0.70;99.90;;;;;;5053154;28;20282;-80
2022/03/04 02:20:41;;;;;;;18.38;12.38;;;0.80;99.90;;;;;;5053453;28;20061;-80
2022/03/04 02:23:08;;;;;;;19.33;11.95;;;0.80;99.90;;;;;;5051939;28;20049;-80
2022/03/04 02:25:34;;;;;;;21.23;12.63;;;0.80;99.90;;;;;;5053201;28;20107;-80
2022/03/04 02:27:59;;;;;;;20.02;12.48;;;0.80;99.90;;;;;;5051606;28;20482;-80
2022/03/04 02:30:25;;;;;;;20.88;12.25;;;0.80;99.90;;;;;;5053194;28;20048;-80
2022/03/04 02:32:51;;;;;;;20.77;13.05;;;0.80;99.90;;;;;;5051950;28;20041;-80
2022/03/04 02:35:16;;;;;;;20.65;12.25;;;0.70;99.90;;;;;;5052730;28;20076;-78
2022/03/04 02:37:42;;;;;;;23.38;13.50;;;0.80;99.90;;;;;;5051431;28;20128;-80
2022/03/04 02:40:08;;;;;;;19.88;12.15;;;0.80;99.90;;;;;;5052696;28;20051;-80
2022/03/04 02:42:34;;;;;;;20.50;12.73;;;0.70;99.90;;;;;;5052966;28;20043;-80
2022/03/04 02:44:59;;;;;;;19.23;12.73;;;0.70;99.90;;;;;;5052509;28;20045;-80
2022/03/04 02:47:25;;;;;;;19.05;12.77;;;0.70;99.90;;;;;;5052736;28;20053;-80
2022/03/04 02:49:50;;;;;;;21.85;13.25;;;0.70;99.90;;;;;;5051599;28;20049;-80
2022/03/04 02:52:16;;;;;;;25.23;13.48;;;0.70;99.90;;;;;;5034969;28;20128;-79
2022/03/04 02:54:42;;;;;;;21.17;13.48;;;0.80;99.90;;;;;;5052851;28;20123;-80
2022/03/04 02:57:07;;;;;;;20.67;13.10;;;0.80;99.90;;;;;;5052345;28;20192;-80
2022/03/04 02:59:33;;;;;;;21.95;13.25;;;0.70;99.90;;;;;;5052798;28;20174;-80
2022/03/04 03:01:58;;;;;;;25.13;14.23;;;0.70;99.90;;;;;;5052385;28;20088;-82
2022/03/04 03:04:24;;;;;;;25.52;14.55;;;0.70;99.90;;;;;;5052646;28;20080;-80
2022/03/04 03:06:52;;;;;;;25.52;14.20;;;0.70;99.90;;;;;;5052320;28;20052;-79
2022/03/04 03:09:17;;;;;;;21.80;13.50;;;0.60;99.90;;;;;;5051213;28;20056;-79
2022/03/04 03:11:43;;;;;;;23.02;13.13;;;0.60;99.90;;;;;;5052468;28;20544;-80
2022/03/04 03:14:08;;;;;;;23.92;14.57;;;0.60;99.90;;;;;;5051956;28;20150;-80
2022/03/04 03:16:34;;;;;;;23.02;14.93;;;0.60;99.90;;;;;;5052425;28;20186;-79
2022/03/04 03:19:00;;;;;;;23.15;13.38;;;0.60;99.90;;;;;;5052544;28;20077;-80
2022/03/04 03:21:25;;;;;;;20.30;13.40;;;0.60;99.90;;;;;;5052162;28;20059;-78
2022/03/04 03:23:51;;;;;;;23.48;13.65;;;0.50;99.90;;;;;;5052578;28;20052;-80
2022/03/04 03:26:16;;;;;;;22.92;14.00;;;0.60;99.90;;;;;;5052020;28;20048;-79
2022/03/04 03:28:42;;;;;;;24.58;14.23;;;0.60;99.90;;;;;;5062058;28;20091;-75
2022/03/04 03:31:08;;;;;;;23.85;13.75;;;0.60;99.90;;;;;;5063193;28;20131;-76
2022/03/04 03:33:36;;;;;;;25.38;14.60;;;0.60;99.90;;;;;;5058897;28;20469;-80
2022/03/04 03:36:02;;;;;;;22.85;13.90;;;0.60;99.90;;;;;;5052391;28;20048;-80
2022/03/04 03:38:28;;;;;;;25.30;14.55;;;0.50;99.90;;;;;;5050627;28;20041;-80
2022/03/04 03:40:54;;;;;;;24.35;14.52;;;0.50;99.90;;;;;;5034846;28;20084;-80
2022/03/04 03:43:19;;;;;;;24.38;14.77;;;0.50;99.90;;;;;;5050884;28;20085;-79
2022/03/04 03:45:45;;;;;;;22.13;14.48;;;0.50;99.90;;;;;;5052440;28;20053;-80
2022/03/04 03:48:11;;;;;;;24.10;14.38;;;0.40;99.90;;;;;;5050977;28;20053;-79
2022/03/04 03:50:38;;;;;;;25.15;15.38;;;0.40;99.90;;;;;;5054795;28;20041;-80
2022/03/04 03:53:04;;;;;;;23.83;15.20;;;0.40;99.90;;;;;;5056133;28;20393;-79
2022/03/04 03:55:30;;;;;;;25.40;14.70;;;0.30;99.90;;;;;;5054696;28;20041;-79
2022/03/04 03:57:56;;;;;;;27.98;14.55;;;0.30;99.90;;;;;;5056332;28;20051;-80
2022/03/04 04:00:21;;;;;;;25.08;14.57;;;0.30;99.90;;;;;;5054745;28;20053;-79
2022/03/04 04:02:47;;;;;;;25.15;15.05;;;0.30;99.90;;;;;;5056112;28;20111;-79
2022/03/04 04:05:13;;;;;;;24.00;14.55;;;0.30;99.90;;;;;;5054815;28;20072;-78
2022/03/04 04:07:38;;;;;;;23.15;14.82;;;0.30;99.90;;;;;;5056079;28;20445;-79
2022/03/04 04:10:04;;;;;;;29.08;15.80;;;0.20;99.90;;;;;;5055811;28;20085;-79
2022/03/04 04:12:30;;;;;;;26.38;15.55;;;0.20;99.90;;;;;;5037430;28;20481;-79
2022/03/04 04:14:56;;;;;;;27.52;15.63;;;0.10;99.90;;;;;;5055821;28;20044;-79
2022/03/04 04:17:22;;;;;;;25.23;14.63;;;0.30;99.90;;;;;;5055170;28;20048;-79
2022/03/04 04:19:48;;;;;;;25.95;15.20;;;0.10;99.90;;;;;;5054384;28;20060;-80
2022/03/04 04:22:13;;;;;;;25.73;15.77;;;0.10;99.90;;;;;;5055512;28;20143;-80
2022/03/04 04:24:39;;;;;;;25.58;15.98;;;0.10;99.90;;;;;;5054745;28;20041;-80
2022/03/04 04:27:05;;;;;;;25.55;15.73;;;0.10;99.90;;;;;;5055702;28;20389;-80
2022/03/04 04:29:30;;;;;;;27.25;15.73;;;0.10;99.90;;;;;;5054068;28;20045;-80
2022/03/04 04:31:56;;;;;;;27.30;16.10;;;0.00;99.90;;;;;;5055502;28;20072;-80
2022/03/04 04:34:22;;;;;;;28.25;16.17;;;0.00;99.90;;;;;;5055266;28;20132;-80
2022/03/04 04:36:47;;;;;;;31.02;17.52;;;0.00;99.90;;;;;;5055495;28;20045;-80
2022/03/04 04:39:13;;;;;;;27.02;16.35;;;0.00;99.90;;;;;;5055007;28;20375;-80
2022/03/04 04:41:39;;;;;;;30.50;16.90;;;0.00;99.90;;;;;;5055263;28;20045;-80
2022/03/04 04:44:04;;;;;;;30.08;18.00;;;0.00;99.90;;;;;;5054280;28;20148;-79
2022/03/04 04:46:30;;;;;;;30.77;16.35;;;0.00;99.90;;;;;;5054874;28;20086;-78
2022/03/04 04:48:56;;;;;;;27.75;16.92;;;0.00;99.90;;;;;;5054038;28;20048;-77
2022/03/04 04:51:21;;;;;;;29.63;17.25;;;0.00;99.90;;;;;;5054519;28;20045;-78
2022/03/04 04:53:47;;;;;;;30.15;16.75;;;0.00;99.90;;;;;;5055374;28;20059;-77
2022/03/04 04:56:12;;;;;;;27.95;16.75;;;0.10;99.90;;;;;;5061465;28;20095;-75
2022/03/04 04:58:38;;;;;;;27.95;16.42;;;-0.10;99.90;;;;;;5061872;28;20044;-75
2022/03/04 05:01:04;;;;;;;28.38;16.67;;;-0.10;99.90;;;;;;5060750;28;20053;-75
2022/03/04 05:03:29;;;;;;;29.70;16.23;;;-0.10;99.90;;;;;;5055972;28;20444;-79
2022/03/04 05:05:55;;;;;;;27.75;16.52;;;-0.10;99.90;;;;;;5054640;28;20052;-78
2022/03/04 05:08:21;;;;;;;31.75;17.27;;;-0.10;99.90;;;;;;5036829;28;20048;-79
2022/03/04 05:10:47;;;;;;;30.15;17.40;;;-0.10;99.90;;;;;;5054764;28;20049;-79
2022/03/04 05:13:13;;;;;;;26.52;17.25;;;-0.10;99.90;;;;;;5053521;28;20045;-78
2022/03/04 05:15:38;;;;;;;31.13;17.88;;;0.00;99.90;;;;;;5054412;28;20048;-79
2022/03/04 05:18:04;;;;;;;29.08;17.15;;;0.00;99.90;;;;;;5037144;28;20508;-80
2022/03/04 05:20:30;;;;;;;32.95;18.30;;;0.10;99.90;;;;;;5052899;28;20064;-80
2022/03/04 05:22:55;;;;;;;33.47;17.00;;;0.00;99.90;;;;;;5054941;28;20493;-81
2022/03/04 05:25:21;;;;;;;31.70;18.25;;;0.10;99.90;;;;;;5054362;28;20052;-81
2022/03/04 05:27:47;;;;;;;29.05;17.60;;;0.10;99.90;;;;;;5036990;28;20147;-84
2022/03/04 05:30:12;;;;;;;28.73;17.60;;;0.20;99.90;;;;;;5054688;28;20043;-83
2022/03/04 05:32:38;;;;;;;30.63;17.10;;;0.10;99.90;;;;;;5052930;28;20380;-84
2022/03/04 05:35:04;;;;;;;28.60;17.42;;;0.10;99.90;;;;;;5053368;28;20040;-84
2022/03/04 05:37:30;;;;;;;27.40;17.10;;;0.10;99.90;;;;;;5053032;28;20135;-84
2022/03/04 05:39:55;;;;;;;29.25;17.55;;;0.10;99.90;;;;;;5053201;28;20148;-82
2022/03/04 05:42:21;;;;;;;31.58;17.65;;;0.10;99.90;;;;;;5054261;28;20059;-83
2022/03/04 05:44:46;;;;;;;30.75;17.60;;;0.10;99.90;;;;;;5054472;28;20132;-82
2022/03/04 05:47:12;;;;;;;31.38;17.38;;;0.10;99.90;;;;;;5053245;28;20037;-84
2022/03/04 05:49:38;;;;;;;30.70;17.77;;;0.10;99.90;;;;;;5053727;28;20440;-85
2022/03/04 05:52:04;;;;;;;33.15;19.13;;;0.20;99.90;;;;;;5003921;28;20370;-83
2022/03/04 05:54:30;;;;;;;34.38;20.08;;;0.20;99.90;;;;;;5036317;28;20080;-83
2022/03/04 05:56:56;;;;;;;31.83;19.35;;;0.20;99.90;;;;;;5052756;28;20057;-83
2022/03/04 05:59:21;;;;;;;33.75;19.25;;;0.20;99.90;;;;;;5052458;28;20501;-83
2022/03/04 06:01:47;;;;;;;30.77;18.27;;;0.40;99.90;;;;;;5052169;28;20090;-84
2022/03/04 06:04:12;;;;;;;31.83;19.30;;;0.20;99.90;;;;;;5052642;28;20094;-82
2022/03/04 06:06:38;;;;;;;30.98;18.73;;;0.20;99.90;;;;;;5052197;28;20133;-81
2022/03/04 06:09:04;;;;;;;33.42;19.23;;;0.20;99.90;;;;;;5053477;28;20045;-81
2022/03/04 06:11:29;;;;;;;30.95;18.52;;;0.20;99.90;;;;;;5052910;28;20041;-82
2022/03/04 06:13:55;;;;;;;34.05;19.08;;;0.20;99.90;;;;;;5051703;28;20485;-81
2022/03/04 06:16:21;;;;;;;33.00;19.42;;;0.10;99.90;;;;;;5053871;28;20516;-82
2022/03/04 06:18:47;;;;;;;33.63;19.05;;;0.10;99.90;;;;;;5052974;28;20040;-81
2022/03/04 06:21:12;;;;;;;35.30;19.92;;;0.10;99.90;;;;;;5062593;28;20101;-76
2022/03/04 06:23:39;;;;;;;31.27;18.58;;;0.10;99.90;;;;;;5074666;28;20039;-79
2022/03/04 06:26:04;;;;;;;35.28;19.67;;;0.10;99.90;;;;;;5075769;28;20052;-76
2022/03/04 06:28:30;;;;;;;31.05;19.27;;;0.20;99.90;;;;;;5065645;28;20045;-82
2022/03/04 06:30:56;;;;;;;34.65;19.73;;;0.20;99.90;;;;;;5035406;28;20079;-81
2022/03/04 06:33:30;;;;;;;32.17;19.55;;;0.20;99.90;;;;;;5053173;28;20080;-81
2022/03/04 06:35:59;;;;;;;31.55;19.70;;;0.30;99.90;;;;;;5052149;28;20037;-81
2022/03/04 06:38:24;;;;;;;32.05;18.33;;;0.30;99.90;;;;;;5035709;28;20056;-82
2022/03/04 06:40:50;;;;;;;28.60;18.67;;;0.30;99.90;;;;;;5052857;28;20366;-81
2022/03/04 06:43:16;;;;;;;32.95;19.65;;;0.40;99.90;;;;;;5052106;28;20049;-82
2022/03/04 06:45:45;;;;;;;31.73;19.30;;;0.40;99.90;;;;;;5051866;28;20393;-82
2022/03/04 06:48:12;;;;;;;32.78;20.13;;;0.40;99.90;;;;;;5051861;28;20044;-81
2022/03/04 06:50:37;;;;;;;32.03;18.83;;;0.40;99.90;;;;;;5052531;28;20052;-82
2022/03/04 06:53:03;;;;;;;30.27;19.15;;;0.40;99.90;;;;;;5051747;28;20053;-82
2022/03/04 06:55:30;;;;;;;30.27;18.80;;;0.40;99.90;;;;;;5051505;28;20049;-81
2022/03/04 06:57:55;;;;;;;29.80;18.75;;;0.30;99.90;;;;;;5052960;28;20047;-81
2022/03/04 07:00:22;;;;;;;31.92;20.35;;;0.40;99.90;;;;;;5053013;28;20053;-81
2022/03/04 07:02:47;;;;;;;31.00;19.15;;;0.40;99.90;;;;;;5034941;28;20049;-81
2022/03/04 07:05:13;;;;;;;29.20;19.17;;;0.40;99.90;;;;;;5051715;28;20045;-82
2022/03/04 07:07:39;;;;;;;30.10;19.20;;;0.40;99.90;;;;;;5051142;28;20504;-82
2022/03/04 07:10:05;;;;;;;30.13;18.98;;;0.40;99.90;;;;;;5051885;28;20053;-81
2022/03/04 07:12:31;;;;;;;31.48;19.50;;;0.40;99.90;;;;;;5052723;28;20067;-81
2022/03/04 07:14:56;;;;;;;32.88;20.35;;;0.40;99.90;;;;;;5051207;28;20037;-82
2022/03/04 07:17:22;;;;;;;31.05;20.00;;;0.40;99.90;;;;;;5051683;28;20056;-82
2022/03/04 07:19:48;;;;;;;31.67;20.88;;;0.50;99.90;;;;;;5034660;28;20088;-81
2022/03/04 07:22:14;;;;;;;31.20;19.52;;;0.40;99.90;;;;;;5051505;28;20041;-81
2022/03/04 07:24:39;;;;;;;31.10;20.05;;;0.50;99.90;;;;;;5052051;28;20060;-82
2022/03/04 07:27:05;;;;;;;31.58;20.02;;;0.50;99.90;;;;;;5052737;28;20044;-81
2022/03/04 07:29:31;;;;;;;29.45;19.25;;;0.60;99.90;;;;;;5051327;28;20048;-81
2022/03/04 07:31:56;;;;;;;31.00;18.77;;;0.60;99.90;;;;;;5052256;28;20522;-81
2022/03/04 07:34:23;;;;;;;30.75;18.70;;;0.60;99.90;;;;;;5052720;28;20063;-82
2022/03/04 07:36:48;;;;;;;31.23;20.35;;;0.60;99.90;;;;;;5052532;28;20043;-81
2022/03/04 07:39:14;;;;;;;33.78;19.52;;;0.70;99.90;;;;;;5052866;28;20048;-81
2022/03/04 07:41:40;;;;;;;30.67;19.25;;;0.60;99.90;;;;;;5054003;28;20069;-76
2022/03/04 07:44:05;;;;;;;30.25;20.23;;;0.70;99.90;;;;;;5057341;28;20074;-80
2022/03/04 07:46:31;;;;;;;29.27;19.30;;;0.70;99.90;;;;;;5055518;28;20100;-76
2022/03/04 07:48:57;;;;;;;31.15;20.13;;;0.70;99.90;;;;;;5071054;28;20491;-76
2022/03/04 07:51:22;;;;;;;32.20;20.00;;;0.80;99.90;;;;;;5065810;28;20059;-77
2022/03/04 07:53:48;;;;;;;30.15;19.58;;;0.80;99.90;;;;;;5058569;28;20431;-81
2022/03/04 07:56:14;;;;;;;32.63;20.42;;;0.80;99.90;;;;;;5052508;28;20500;-78
2022/03/04 07:58:39;;;;;;;33.90;20.70;;;0.80;99.90;;;;;;5052348;28;20110;-80
2022/03/04 08:01:05;;;;;;;29.98;19.75;;;0.80;99.90;;;;;;5051688;28;20045;-80
2022/03/04 08:03:31;;;;;;;30.23;19.48;;;0.90;99.90;;;;;;5052528;28;20044;-82
2022/03/04 08:05:57;;;;;;;28.02;18.35;;;1.00;99.90;;;;;;5034800;28;20048;-85
2022/03/04 08:08:23;;;;;;;30.60;19.15;;;0.90;99.90;;;;;;5051497;28;20048;-85
2022/03/04 08:10:48;;;;;;;31.27;19.92;;;0.90;99.90;;;;;;5050843;28;20107;-83
2022/03/04 08:13:14;;;;;;;29.10;19.23;;;0.90;99.90;;;;;;5050828;28;20299;-83
2022/03/04 08:15:40;;;;;;;28.60;19.17;;;0.90;99.90;;;;;;5052315;28;20111;-83
2022/03/04 08:18:06;;;;;;;27.40;19.00;;;0.90;99.90;;;;;;5034559;28;20485;-83
2022/03/04 08:20:32;;;;;;;30.40;19.38;;;1.00;99.90;;;;;;5051040;28;20064;-82
2022/03/04 08:22:58;;;;;;;29.13;18.90;;;1.00;99.90;;;;;;5050791;28;20052;-82
2022/03/04 08:25:24;;;;;;;26.63;18.63;;;1.10;99.90;;;;;;5052301;28;20048;-83
2022/03/04 08:27:50;;;;;;;29.63;19.73;;;1.00;99.90;;;;;;5051943;28;20424;-83
2022/03/04 08:30:16;;;;;;;26.38;18.50;;;1.00;99.90;;;;;;5051118;28;20051;-83
2022/03/04 08:32:41;;;;;;;26.38;18.23;;;1.10;99.90;;;;;;5050720;28;20044;-83
2022/03/04 08:35:08;;;;;;;26.45;18.42;;;1.10;99.90;;;;;;5034372;28;20056;-84
2022/03/04 08:37:34;;;;;;;25.98;18.67;;;1.10;99.90;;;;;;5054517;28;20509;-83
2022/03/04 08:39:59;;;;;;;26.20;17.75;;;1.10;99.90;;;;;;5055467;28;20083;-84
2022/03/04 08:42:26;;;;;;;26.20;17.60;;;1.10;99.90;;;;;;5055779;28;20045;-84
2022/03/04 08:44:54;;;;;;;25.08;17.38;;;1.00;99.90;;;;;;5037692;28;20540;-84
2022/03/04 08:47:20;;;;;;;26.67;18.80;;;1.10;99.90;;;;;;5055762;28;20087;-84
2022/03/04 08:49:46;;;;;;;28.92;18.48;;;1.10;99.90;;;;;;5037364;28;20489;-86
2022/03/04 08:52:11;;;;;;;25.33;17.25;;;1.20;99.90;;;;;;5054238;28;20084;-84
2022/03/04 08:54:37;;;;;;;26.55;19.10;;;1.20;99.90;;;;;;5054478;28;20041;-84
2022/03/04 08:57:04;;;;;;;26.58;18.02;;;1.20;99.90;;;;;;5055115;28;20501;-86
2022/03/04 08:59:29;;;;;;;29.40;18.67;;;1.30;99.90;;;;;;5037899;28;20370;-87
2022/03/04 09:01:56;;;;;;;24.23;17.90;;;1.30;99.90;;;;;;5055154;28;20048;-84
2022/03/04 09:04:22;;;;;;;26.45;18.40;;;1.30;99.90;;;;;;5055330;28;20406;-84
2022/03/04 09:06:48;;;;;;;29.35;17.85;;;1.40;99.90;;;;;;5053852;28;20048;-84
2022/03/04 09:09:14;;;;;;;26.35;18.40;;;1.50;99.90;;;;;;5037577;28;20044;-83
2022/03/04 09:11:41;;;;;;;27.52;19.13;;;1.40;99.90;;;;;;5054135;28;20124;-84
2022/03/04 09:14:06;;;;;;;24.90;18.38;;;1.40;99.90;;;;;;5054587;28;20540;-84
2022/03/04 09:16:32;;;;;;;25.50;17.45;;;1.50;99.90;;;;;;5054094;28;20136;-83
2022/03/04 09:18:58;;;;;;;26.75;18.90;;;1.50;99.90;;;;;;5037219;28;20045;-83
2022/03/04 09:21:24;;;;;;;24.98;18.38;;;1.60;99.90;;;;;;5055363;28;20477;-84
2022/03/04 09:23:49;;;;;;;26.40;18.52;;;1.60;99.90;;;;;;5054992;28;20049;-85
2022/03/04 09:26:15;;;;;;;26.58;18.52;;;1.70;99.90;;;;;;5066137;28;20052;-84
2022/03/04 09:28:41;;;;;;;27.90;20.20;;;1.80;99.90;;;;;;5070189;28;20049;-84
2022/03/04 09:31:07;;;;;;;24.35;17.35;;;1.80;99.90;;;;;;5068954;28;20105;-84
2022/03/04 09:33:33;;;;;;;26.83;19.65;;;1.90;99.90;;;;;;5075482;28;20043;-84
2022/03/04 09:36:00;;;;;;;24.73;17.52;;;1.90;99.90;;;;;;5078692;28;20029;-84
2022/03/04 09:38:27;;;;;;;26.05;18.52;;;2.00;99.90;;;;;;5079528;28;20040;-85
2022/03/04 09:40:53;;;;;;;24.08;17.98;;;2.00;99.90;;;;;;5078166;28;20079;-86
2022/03/04 09:43:24;;;;;;;24.58;17.88;;;1.90;99.90;;;;;;5056446;28;20048;-85
2022/03/04 09:45:50;;;;;;;25.48;18.50;;;1.90;99.90;;;;;;5054742;28;20052;-84
2022/03/04 09:48:16;;;;;;;25.08;17.92;;;1.80;99.90;;;;;;5053222;28;20367;-84
2022/03/04 09:50:46;;;;;;;22.23;16.58;;;1.80;99.90;;;;;;5053720;28;20080;-84
2022/03/04 09:53:12;;;;;;;26.03;17.67;;;1.80;99.90;;;;;;5054394;28;20037;-84
2022/03/04 09:55:38;;;;;;;23.50;17.75;;;1.70;99.90;;;;;;5053295;28;20393;-84
2022/03/04 09:58:12;;;;;;;27.95;17.90;;;1.80;99.90;;;;;;5052832;28;20049;-84
2022/03/04 10:00:38;;;;;;;25.27;18.02;;;1.80;99.90;;;;;;5054592;28;20477;-84
2022/03/04 10:03:05;;;;;;;23.27;17.23;;;1.80;99.90;;;;;;5020092;28;20132;-84
2022/03/04 10:05:31;;;;;;;24.23;17.58;;;1.90;99.90;;;;;;5053028;28;20049;-83
2022/03/04 10:07:56;;;;;;;23.95;17.45;;;1.90;99.90;;;;;;5053007;28;20049;-84
2022/03/04 10:10:22;;;;;;;24.10;17.73;;;1.90;99.90;;;;;;5053028;28;20041;-84
2022/03/04 10:12:49;;;;;;;27.38;19.13;;;1.90;99.90;;;;;;5053692;28;20041;-83
2022/03/04 10:15:15;;;;;;;25.90;18.42;;;1.90;99.90;;;;;;5052480;28;20049;-83
2022/03/04 10:17:41;;;;;;;25.05;17.90;;;2.00;99.90;;;;;;5052782;28;20045;-84
2022/03/04 10:20:09;;;;;;;27.00;18.85;;;2.20;99.90;;;;;;5053491;28;20053;-83
2022/03/04 10:22:42;;;;;;;24.52;17.73;;;2.20;99.90;;;;;;5053537;28;20491;-85
2022/03/04 10:25:19;;;;;;;24.33;18.17;;;2.20;99.90;;;;;;5052701;28;20103;-83
2022/03/04 10:27:46;;;;;;;23.52;17.58;;;2.30;99.90;;;;;;5052942;28;20049;-83
2022/03/04 10:30:11;;;;;;;24.52;18.13;;;2.30;99.90;;;;;;5052553;28;20045;-84
2022/03/04 10:32:37;;;;;;;25.45;18.52;;;2.30;99.90;;;;;;5052575;28;20043;-85
2022/03/04 10:35:10;;;;;;;23.92;17.95;;;2.20;99.90;;;;;;5052658;28;20106;-85
2022/03/04 10:37:56;;;;;;;27.38;18.20;;;2.30;99.90;;;;;;5052695;28;20049;-84
2022/03/04 10:40:26;;;;;;;25.88;17.40;;;2.30;99.90;;;;;;5052446;28;20045;-84
2022/03/04 10:42:56;;;;;;;24.83;18.80;;;2.40;99.90;;;;;;5036689;28;20037;-84
2022/03/04 10:45:29;;;;;;;25.38;17.83;;;2.40;99.90;;;;;;5052771;28;20052;-84
2022/03/04 10:48:07;;;;;;;23.20;16.88;;;2.50;99.90;;;;;;5053880;28;20475;-84
2022/03/04 10:50:38;;;;;;;26.85;18.20;;;2.50;99.90;;;;;;5053757;28;20471;-85
2022/03/04 10:53:08;;;;;;;25.83;18.02;;;2.60;99.90;;;;;;5052230;28;20398;-84
2022/03/04 10:55:39;;;;;;;29.60;19.67;;;2.60;99.90;;;;;;5054266;28;20053;-84
2022/03/04 10:58:23;;;;;;;26.70;19.30;;;2.70;99.90;;;;;;5051863;28;20080;-86
2022/03/04 11:00:52;;;;;;;26.10;19.00;;;2.70;99.90;;;;;;5021063;28;20049;-84
2022/03/04 11:03:22;;;;;;;26.30;19.55;;;2.80;99.90;;;;;;5057840;28;20056;-84
2022/03/04 11:05:49;;;;;;;26.65;18.77;;;2.90;99.90;;;;;;5053972;28;20051;-84
2022/03/04 11:08:15;;;;;;;28.52;19.17;;;2.90;99.90;;;;;;5067032;28;20052;-83
2022/03/04 11:10:41;;;;;;;27.35;18.08;;;3.00;99.90;;;;;;5068848;28;20087;-84
2022/03/04 11:13:08;;;;;;;24.15;17.05;;;3.10;99.90;;;;;;5070558;28;20071;-84
2022/03/04 11:15:34;;;;;;;24.23;17.48;;;3.20;99.90;;;;;;5077249;28;20033;-84
2022/03/04 11:18:05;;;;;;;26.33;17.98;;;3.40;99.90;;;;;;5076162;28;20057;-84
2022/03/04 11:20:30;;;;;;;;;;;3.50;99.90;;;;;;5076424;28;20079;-85
2022/03/04 11:22:56;;;;;;;20.98;14.60;;;3.60;99.90;;;;;;5066970;28;19920;-82
2022/03/04 11:25:24;;;;;;;20.95;15.80;;;3.70;99.90;;;;;;5053794;28;20063;-83
2022/03/04 11:27:53;;;;;;;21.60;16.15;;;3.80;99.90;;;;;;5053964;28;20044;-84
2022/03/04 11:30:49;;;;;;;20.45;15.75;;;3.80;99.90;;;;;;5053365;28;20095;-84
2022/03/04 11:33:19;;;;;;;20.27;14.75;;;3.90;99.90;;;;;;5019179;28;20049;-85
2022/03/04 11:36:03;;;;;;;20.90;15.60;;;4.00;99.90;;;;;;5053466;28;20457;-84
2022/03/04 11:38:47;;;;;;;24.10;16.95;;;4.10;99.90;;;;;;5052154;28;20049;-84
2022/03/04 11:41:31;;;;;;;20.33;15.18;;;4.20;99.90;;;;;;5052752;28;20148;-84
2022/03/04 11:43:59;;;;;;;20.50;15.45;;;4.30;99.90;;;;;;5053119;28;20045;-84
2022/03/04 11:46:26;;;;;;;19.88;14.57;;;4.40;99.90;;;;;;5052463;28;20135;-83
2022/03/04 11:49:30;;;;;;;18.92;14.32;;;4.60;99.90;;;;;;5051608;28;20487;-84
2022/03/04 11:52:10;;;;;;;23.60;16.70;;;4.80;99.90;;;;;;5052502;28;20066;-84
2022/03/04 11:54:44;;;;;;;18.58;13.88;;;5.10;99.90;;;;;;5051768;28;20045;-84
2022/03/04 11:57:49;;;;;;;18.90;15.07;;;5.20;99.90;;;;;;5051468;28;20087;-84
2022/03/04 12:00:18;;;;;;;20.90;15.13;;;5.20;99.90;;;;;;4974973;28;20047;-84
2022/03/04 12:02:56;;;;;;;18.40;14.07;;;5.20;99.90;;;;;;4975094;28;20058;-84
2022/03/04 12:05:29;;;;;;;17.73;13.27;;;5.30;99.90;;;;;;5010262;28;20091;-84
2022/03/04 12:07:54;;;;;;;18.02;14.32;;;5.40;99.90;;;;;;5052601;28;20099;-84
2022/03/04 12:10:21;;;;;;;19.70;14.68;;;5.40;99.90;;;;;;5051762;28;20477;-83
2022/03/04 12:13:02;;;;;;;22.52;15.05;;;5.40;99.90;;;;;;5056258;28;20041;-84
2022/03/04 12:15:37;;;;;;;17.38;13.68;;;5.50;99.90;;;;;;5054964;28;20079;-84
2022/03/04 12:18:27;;;;;;;18.08;14.82;;;5.50;99.90;;;;;;5055047;28;20098;-83
2022/03/04 12:21:05;;;;;;;17.77;14.05;;;5.60;99.90;;;;;;5056127;28;20065;-83
2022/03/04 12:23:39;;;;;;;15.88;13.40;;;5.70;99.90;;;;;;5022182;28;20512;-84
2022/03/04 12:26:05;;;;;;;21.75;14.23;;;5.70;99.90;;;;;;5056594;28;20400;-83
2022/03/04 12:28:43;;;;;;;18.02;13.80;;;5.90;99.90;;;;;;5055569;28;20132;-82
2022/03/04 12:31:12;;;;;;;19.65;13.95;;;5.90;99.90;;;;;;5055424;28;20049;-84
2022/03/04 12:33:39;;;;;;;16.77;13.80;;;6.00;99.90;;;;;;5054293;28;20084;-84
2022/03/04 12:36:07;;;;;;;18.63;13.85;;;6.10;99.90;;;;;;5055286;28;20053;-84
2022/03/04 12:38:46;;;;;;;16.52;12.93;;;6.20;99.90;;;;;;5037880;28;20053;-83